createdAt,value
2018-11-14T00:00:21.834Z,2.47
2018-11-14T00:02:25.550Z,2.87
2018-11-14T00:04:29.215Z,3.23
2018-11-14T00:06:32.945Z,3.00
2018-11-14T00:08:36.601Z,3.37
2018-11-14T00:10:40.241Z,2.47
2018-11-14T00:12:43.980Z,2.43
2018-11-14T00:14:47.611Z,3.17
2018-11-14T00:16:51.299Z,2.77
2018-11-14T00:18:55.018Z,3.80
2018-11-14T00:20:58.701Z,2.60
2018-11-14T00:23:02.442Z,3.33
2018-11-14T00:25:06.393Z,2.93
2018-11-14T00:27:10.262Z,3.00
2018-11-14T00:29:14.159Z,3.23
2018-11-14T00:31:17.909Z,2.60
2018-11-14T00:33:21.618Z,3.30
2018-11-14T00:35:25.281Z,3.53
2018-11-14T00:37:28.942Z,3.40
2018-11-14T00:39:32.701Z,3.17
2018-11-14T00:41:36.377Z,2.93
2018-11-14T00:43:40.041Z,3.43
2018-11-14T00:45:43.735Z,3.87
2018-11-14T00:47:48.105Z,3.30
2018-11-14T00:49:52.797Z,2.70
2018-11-14T00:51:56.547Z,2.97
2018-11-14T00:54:00.158Z,3.10
2018-11-14T01:02:38.391Z,3.17
2018-11-14T01:04:42.039Z,3.53
2018-11-14T01:06:45.705Z,3.77
2018-11-14T01:08:49.899Z,4.20
2018-11-14T01:10:53.561Z,3.83
2018-11-14T01:12:57.390Z,4.37
2018-11-14T01:15:01.077Z,3.60
2018-11-14T01:17:05.241Z,4.10
2018-11-14T01:19:10.061Z,4.33
2018-11-14T01:21:13.753Z,3.57
2018-11-14T01:23:17.534Z,3.83
2018-11-14T01:25:22.179Z,3.87
2018-11-14T01:27:25.907Z,3.80
2018-11-14T01:29:29.621Z,4.20
2018-11-14T01:31:33.261Z,4.87
2018-11-14T01:33:37.009Z,4.63
2018-11-14T01:35:40.681Z,4.20
2018-11-14T01:37:44.327Z,3.60
2018-11-14T01:39:48.013Z,4.33
2018-11-14T01:41:51.830Z,5.47
2018-11-14T01:43:55.513Z,4.73
2018-11-14T01:45:59.297Z,4.50
2018-11-14T01:48:03.593Z,4.63
2018-11-14T01:50:08.776Z,4.53
2018-11-14T01:52:12.462Z,4.70
2018-11-14T01:54:16.241Z,4.50
2018-11-14T01:56:20.701Z,4.87
2018-11-14T01:58:24.365Z,5.40
2018-11-14T02:00:28.597Z,4.80
2018-11-14T02:02:32.733Z,4.70
2018-11-14T02:04:36.625Z,5.30
2018-11-14T02:06:41.474Z,4.57
2018-11-14T02:08:45.189Z,5.17
2018-11-14T02:10:48.935Z,5.37
2018-11-14T02:12:52.625Z,5.03
2018-11-14T02:14:56.337Z,5.43
2018-11-14T02:17:00.028Z,4.70
2018-11-14T02:19:03.721Z,5.37
2018-11-14T02:21:07.991Z,4.83
2018-11-14T02:23:11.669Z,5.53
2018-11-14T02:25:15.921Z,5.37
2018-11-14T02:27:19.561Z,5.30
2018-11-14T02:29:23.277Z,5.77
2018-11-14T02:31:26.941Z,6.03
2018-11-14T02:33:30.720Z,5.07
2018-11-14T02:35:34.357Z,5.23
2018-11-14T02:37:39.158Z,4.57
2018-11-14T02:39:42.887Z,5.23
2018-11-14T02:41:47.609Z,5.60
2018-11-14T02:43:51.313Z,6.40
2018-11-14T02:45:55.015Z,5.13
2018-11-14T02:47:58.713Z,6.20
2018-11-14T02:50:02.405Z,6.13
2018-11-14T02:52:06.281Z,5.97
2018-11-14T02:54:10.006Z,5.43
2018-11-14T02:56:13.764Z,5.67
2018-11-14T02:58:17.683Z,5.77
2018-11-14T03:00:22.249Z,5.77
2018-11-14T03:02:25.969Z,6.27
2018-11-14T03:04:29.673Z,5.50
2018-11-14T03:06:33.549Z,5.43
2018-11-14T03:08:37.187Z,6.47
2018-11-14T03:10:40.924Z,5.30
2018-11-14T03:12:44.805Z,5.00
2018-11-14T03:14:48.585Z,5.13
2018-11-14T03:16:52.369Z,5.47
2018-11-14T03:18:56.098Z,6.10
2018-11-14T03:20:59.769Z,6.27
2018-11-14T03:23:04.534Z,4.93
2018-11-14T03:25:09.064Z,5.50
2018-11-14T03:27:12.711Z,5.70
2018-11-14T03:29:16.370Z,5.30
2018-11-14T03:31:20.033Z,5.20
2018-11-14T03:33:23.701Z,6.40
2018-11-14T03:35:32.594Z,6.00
2018-11-14T03:37:36.792Z,5.43
2018-11-14T03:39:40.546Z,5.40
2018-11-14T03:41:44.293Z,6.17
2018-11-14T03:43:47.942Z,5.03
2018-11-14T03:45:51.582Z,5.33
2018-11-14T03:47:55.249Z,5.70
2018-11-14T03:49:58.992Z,5.93
2018-11-14T03:52:03.766Z,6.30
2018-11-14T03:54:07.446Z,5.63
2018-11-14T03:56:12.095Z,5.57
2018-11-14T03:58:15.736Z,5.40
2018-11-14T04:00:20.408Z,5.43
2018-11-14T04:02:24.148Z,5.40
2018-11-14T04:04:27.818Z,5.10
2018-11-14T04:06:31.449Z,5.30
2018-11-14T04:08:35.273Z,5.00
2018-11-14T04:10:38.913Z,5.47
2018-11-14T04:12:43.293Z,5.87
2018-11-14T04:14:47.037Z,5.60
2018-11-14T04:16:51.433Z,5.07
2018-11-14T04:18:55.137Z,5.00
2018-11-14T04:20:59.461Z,5.37
2018-11-14T04:23:03.222Z,4.73
2018-11-14T04:25:08.758Z,5.30
2018-11-14T04:27:12.488Z,4.37
2018-11-14T04:29:16.185Z,4.20
2018-11-14T04:31:19.861Z,4.77
2018-11-14T04:33:23.539Z,4.70
2018-11-14T04:35:27.218Z,3.87
2018-11-14T04:37:30.892Z,4.63
2018-11-14T04:39:34.741Z,4.70
2018-11-14T04:41:39.020Z,4.50
2018-11-14T04:43:42.717Z,3.10
2018-11-14T04:45:46.538Z,3.97
2018-11-14T04:47:50.575Z,3.30
2018-11-14T04:49:54.261Z,3.93
2018-11-14T04:51:57.949Z,3.67
2018-11-14T04:54:02.265Z,3.10
2018-11-14T04:56:06.342Z,3.67
2018-11-14T04:58:11.637Z,3.77
2018-11-14T05:00:16.213Z,3.23
2018-11-14T05:02:19.920Z,3.07
2018-11-14T05:04:23.642Z,3.60
2018-11-14T05:06:27.317Z,3.77
2018-11-14T05:08:30.973Z,3.20
2018-11-14T05:10:35.143Z,3.07
2018-11-14T05:12:39.533Z,3.00
2018-11-14T05:14:43.149Z,3.20
2018-11-14T05:16:46.845Z,3.37
2018-11-14T05:18:51.145Z,3.33
2018-11-14T05:20:54.769Z,3.03
2018-11-14T05:24:22.974Z,2.90
2018-11-14T05:26:26.630Z,2.40
2018-11-14T05:28:30.250Z,3.30
2018-11-14T05:30:34.881Z,2.90
2018-11-14T05:32:38.569Z,2.53
2018-11-14T05:34:42.306Z,3.13
2018-11-14T05:36:46.790Z,3.50
2018-11-14T05:38:50.509Z,3.17
2018-11-14T05:40:54.969Z,2.83
2018-11-14T05:42:59.322Z,2.50
2018-11-14T05:45:03.990Z,3.83
2018-11-14T05:47:07.635Z,2.77
2018-11-14T05:49:11.293Z,3.27
2018-11-14T05:51:15.095Z,2.90
2018-11-14T05:53:18.927Z,2.60
2018-11-14T05:55:22.585Z,3.07
2018-11-14T05:57:26.408Z,2.87
2018-11-14T05:59:30.081Z,3.17
2018-11-14T06:01:33.821Z,2.60
2018-11-14T06:03:37.445Z,2.60
2018-11-14T06:05:41.128Z,3.03
2018-11-14T06:07:44.930Z,2.67
2018-11-14T06:09:48.553Z,2.77
2018-11-14T06:11:53.026Z,2.83
2018-11-14T06:13:56.804Z,3.23
2018-11-14T06:16:00.479Z,3.77
2018-11-14T06:18:04.881Z,2.97
2018-11-14T06:20:10.990Z,2.83
2018-11-14T06:22:15.014Z,3.00
2018-11-14T06:24:18.658Z,2.77
2018-11-14T06:26:22.297Z,2.93
2018-11-14T06:28:25.937Z,3.07
2018-11-14T06:30:29.913Z,3.33
2018-11-14T06:32:33.618Z,3.47
2018-11-14T06:34:37.237Z,3.73
2018-11-14T06:36:40.958Z,3.80
2018-11-14T06:38:44.654Z,3.50
2018-11-14T06:40:48.357Z,3.40
2018-11-14T06:42:51.970Z,4.17
2018-11-14T06:44:55.577Z,4.07
2018-11-14T06:46:59.247Z,3.80
2018-11-14T06:49:03.457Z,3.60
2018-11-14T06:51:07.237Z,4.73
2018-11-14T06:53:10.932Z,4.70
2018-11-14T06:55:15.817Z,4.47
2018-11-14T06:57:19.978Z,4.17
2018-11-14T06:59:23.748Z,4.60
2018-11-14T07:01:27.298Z,5.57
2018-11-14T07:03:31.134Z,4.70
2018-11-14T07:05:35.260Z,4.63
2018-11-14T07:07:39.225Z,5.03
2018-11-14T07:09:43.235Z,4.63
2018-11-14T07:11:47.528Z,4.60
2018-11-14T07:13:51.372Z,3.80
2018-11-14T07:17:19.262Z,4.13
2018-11-14T07:19:23.249Z,3.50
2018-11-14T07:21:27.168Z,5.83
2018-11-14T07:23:31.106Z,3.33
2018-11-14T07:25:35.183Z,3.67
2018-11-14T07:27:39.234Z,3.67
2018-11-14T07:29:43.033Z,3.70
2018-11-14T07:31:46.844Z,3.03
2018-11-14T07:33:50.805Z,3.43
2018-11-14T07:35:54.630Z,3.50
2018-11-14T07:38:35.477Z,3.27
2018-11-14T07:40:39.418Z,3.73
2018-11-14T07:42:43.616Z,3.53
2018-11-14T07:44:48.465Z,3.77
2018-11-14T07:46:52.647Z,3.27
2018-11-14T07:48:56.655Z,3.33
2018-11-14T07:51:00.758Z,3.20
2018-11-14T07:53:04.679Z,2.93
2018-11-14T07:55:09.911Z,3.20
2018-11-14T07:57:13.817Z,3.90
2018-11-14T07:59:17.654Z,3.40
2018-11-14T08:01:21.575Z,4.17
2018-11-14T08:03:25.580Z,3.70
2018-11-14T08:05:29.630Z,3.27
2018-11-14T08:07:33.411Z,3.80
2018-11-14T08:09:37.318Z,4.33
2018-11-14T08:11:41.143Z,4.33
2018-11-14T08:13:46.194Z,4.87
2018-11-14T08:15:51.676Z,4.10
2018-11-14T08:17:55.485Z,4.67
2018-11-14T08:19:59.379Z,4.70
2018-11-14T08:22:03.249Z,4.03
2018-11-14T08:24:07.505Z,4.10
2018-11-14T08:26:11.293Z,4.20
2018-11-14T08:28:15.759Z,4.23
2018-11-14T08:30:20.355Z,3.67
2018-11-14T08:32:24.334Z,3.93
2018-11-14T08:34:28.167Z,3.87
2018-11-14T08:36:31.957Z,4.20
2018-11-14T08:38:35.787Z,4.33
2018-11-14T08:40:43.209Z,4.87
2018-11-14T08:42:49.783Z,4.10
2018-11-14T08:44:57.795Z,4.00
2018-11-14T08:47:06.261Z,4.30
2018-11-14T08:49:20.444Z,3.47
2018-11-14T08:51:25.836Z,3.73
2018-11-14T08:53:32.041Z,2.97
2018-11-14T08:55:39.245Z,3.30
2018-11-14T08:57:44.457Z,2.70
2018-11-14T08:59:48.881Z,3.10
2018-11-14T09:01:53.007Z,2.87
2018-11-14T09:03:56.949Z,2.53
2018-11-14T09:06:00.672Z,2.70
2018-11-14T09:08:04.815Z,3.63
2018-11-14T09:10:11.389Z,3.03
2018-11-14T09:12:15.341Z,3.23
2018-11-14T09:14:19.305Z,3.90
2018-11-14T09:16:23.674Z,3.03
2018-11-14T09:18:27.746Z,2.90
2018-11-14T09:20:31.550Z,2.43
2018-11-14T09:22:35.290Z,2.87
2018-11-14T09:24:39.121Z,2.57
2018-11-14T09:26:43.129Z,3.13
2018-11-14T09:28:46.885Z,2.90
2018-11-14T09:30:51.388Z,3.30
2018-11-14T09:32:55.435Z,3.40
2018-11-14T09:34:59.734Z,2.80
2018-11-14T09:37:03.772Z,3.40
2018-11-14T09:39:09.900Z,2.83
2018-11-14T09:41:13.974Z,4.20
2018-11-14T09:43:17.990Z,2.97
2018-11-14T09:45:24.175Z,3.30
2018-11-14T09:47:28.131Z,3.10
2018-11-14T09:49:41.084Z,3.83
2018-11-14T09:51:47.358Z,4.13
2018-11-14T09:53:51.202Z,2.97
2018-11-14T09:55:55.207Z,3.23
2018-11-14T09:57:59.051Z,3.00
2018-11-14T10:00:03.069Z,3.60
2018-11-14T10:02:06.994Z,3.53
2018-11-14T10:04:10.922Z,3.80
2018-11-14T10:06:14.882Z,3.17
2018-11-14T10:08:18.802Z,3.57
2018-11-14T10:11:47.125Z,3.47
2018-11-14T10:13:51.240Z,3.00
2018-11-14T10:15:55.331Z,3.73
2018-11-14T10:17:59.274Z,3.57
2018-11-14T10:20:03.547Z,3.93
2018-11-14T10:22:07.359Z,3.20
2018-11-14T10:24:11.629Z,3.40
2018-11-14T10:26:15.946Z,2.60
2018-11-14T10:28:19.834Z,3.13
2018-11-14T10:30:26.358Z,3.23
2018-11-14T10:32:30.091Z,3.03
2018-11-14T10:34:33.842Z,2.93
2018-11-14T10:36:37.566Z,3.17
2018-11-14T10:38:41.398Z,2.83
2018-11-14T10:40:45.455Z,5.67
2018-11-14T10:42:49.375Z,3.37
2018-11-14T10:44:53.811Z,3.70
2018-11-14T10:46:58.362Z,3.70
2018-11-14T10:49:06.677Z,3.53
2018-11-14T10:51:11.756Z,3.43
2018-11-14T10:53:15.726Z,3.33
2018-11-14T10:55:20.205Z,3.50
2018-11-14T10:57:24.135Z,3.43
2018-11-14T10:59:28.136Z,3.57
2018-11-14T11:01:37.192Z,3.67
2018-11-14T11:03:46.551Z,3.33
2018-11-14T11:05:55.691Z,3.33
2018-11-14T11:08:04.864Z,3.37
2018-11-14T11:10:13.827Z,3.20
2018-11-14T11:12:23.057Z,3.47
2018-11-14T11:14:33.304Z,3.33
2018-11-14T11:16:41.476Z,3.63
2018-11-14T11:18:45.362Z,4.07
2018-11-14T11:20:49.564Z,3.50
2018-11-14T11:22:53.454Z,3.77
2018-11-14T11:24:57.462Z,3.37
2018-11-14T11:27:01.384Z,3.90
2018-11-14T11:29:05.999Z,3.80
2018-11-14T11:31:10.100Z,4.00
2018-11-14T11:33:13.971Z,3.47
2018-11-14T11:35:17.876Z,4.03
2018-11-14T11:37:21.652Z,3.40
2018-11-14T11:39:25.707Z,3.63
2018-11-14T11:41:29.591Z,2.93
2018-11-14T11:43:33.399Z,3.20
2018-11-14T11:45:37.335Z,3.60
2018-11-14T11:47:41.085Z,3.83
2018-11-14T11:56:17.014Z,3.67
2018-11-14T11:58:20.751Z,2.50
2018-11-14T12:00:25.001Z,2.97
2018-11-14T12:02:28.659Z,3.13
2018-11-14T12:04:32.638Z,3.13
2018-11-14T12:06:36.413Z,2.67
2018-11-14T12:08:40.306Z,3.47
2018-11-14T12:10:44.326Z,2.90
2018-11-14T12:12:48.052Z,2.73
2018-11-14T12:14:51.801Z,4.73
2018-11-14T12:16:55.556Z,3.53
2018-11-14T12:18:59.486Z,2.77
2018-11-14T12:21:03.374Z,3.33
2018-11-14T12:23:07.364Z,3.60
2018-11-14T12:25:13.610Z,3.33
2018-11-14T12:27:17.533Z,3.60
2018-11-14T12:29:21.389Z,2.80
2018-11-14T12:31:25.178Z,5.80
2018-11-14T12:33:28.921Z,3.47
2018-11-14T12:35:32.763Z,3.97
2018-11-14T12:37:36.485Z,3.30
2018-11-14T12:39:40.250Z,3.17
2018-11-14T12:41:44.138Z,4.20
2018-11-14T12:43:47.826Z,2.90
2018-11-14T12:45:51.648Z,3.40
2018-11-14T12:47:55.387Z,3.40
2018-11-14T12:49:59.250Z,4.03
2018-11-14T12:52:03.373Z,3.13
2018-11-14T12:54:07.126Z,2.93
2018-11-14T12:56:10.908Z,3.53
2018-11-14T12:58:14.744Z,3.13
2018-11-14T13:00:19.790Z,3.53
2018-11-14T13:02:23.538Z,3.33
2018-11-14T13:04:27.339Z,2.50
2018-11-14T13:06:31.527Z,3.23
2018-11-14T13:08:35.350Z,3.53
2018-11-14T13:10:39.235Z,2.97
2018-11-14T13:12:43.585Z,3.60
2018-11-14T13:14:47.456Z,3.80
2018-11-14T13:16:51.554Z,2.70
2018-11-14T13:18:55.510Z,3.33
2018-11-14T13:20:59.365Z,3.20
2018-11-14T13:23:03.105Z,3.57
2018-11-14T13:25:09.085Z,3.90
2018-11-14T13:27:12.850Z,3.47
2018-11-14T13:29:16.746Z,3.73
2018-11-14T13:31:20.490Z,2.87
2018-11-14T13:33:24.253Z,2.93
2018-11-14T13:35:28.339Z,3.13
2018-11-14T13:37:32.096Z,3.33
2018-11-14T13:39:35.915Z,3.73
2018-11-14T13:41:39.786Z,3.43
2018-11-14T13:43:43.487Z,3.60
2018-11-14T13:45:47.337Z,3.33
2018-11-14T13:47:51.073Z,3.73
2018-11-14T13:49:54.985Z,3.67
2018-11-14T13:51:58.532Z,3.73
2018-11-14T13:54:02.355Z,2.60
2018-11-14T13:56:06.468Z,5.07
2018-11-14T13:58:10.664Z,3.90
2018-11-14T14:00:15.937Z,3.70
2018-11-14T14:02:19.802Z,2.73
2018-11-14T14:04:23.565Z,3.40
2018-11-14T14:06:27.666Z,2.60
2018-11-14T14:08:31.422Z,3.17
2018-11-14T14:10:35.381Z,3.30
2018-11-14T14:12:39.550Z,4.20
2018-11-14T14:14:43.314Z,3.50
2018-11-14T14:16:47.367Z,2.90
2018-11-14T14:18:51.575Z,3.33
2018-11-14T14:20:55.336Z,3.90
2018-11-14T14:22:59.179Z,3.13
2018-11-14T14:25:03.050Z,3.50
2018-11-14T14:27:06.795Z,3.60
2018-11-14T14:29:10.542Z,4.33
2018-11-14T14:31:14.348Z,3.63
2018-11-14T14:33:18.203Z,3.40
2018-11-14T14:35:22.830Z,3.47
2018-11-14T14:37:26.577Z,3.10
2018-11-14T14:39:30.271Z,3.50
2018-11-14T14:41:34.059Z,3.20
2018-11-14T14:43:37.799Z,3.23
2018-11-14T14:45:41.570Z,3.83
2018-11-14T14:47:45.386Z,3.63
2018-11-14T14:49:49.229Z,4.30
2018-11-14T14:51:52.958Z,3.60
2018-11-14T14:53:56.837Z,3.50
2018-11-14T14:56:00.649Z,3.87
2018-11-14T14:58:04.396Z,4.40
2018-11-14T15:00:12.358Z,3.73
2018-11-14T15:02:16.347Z,4.17
2018-11-14T15:04:20.185Z,3.97
2018-11-14T15:06:23.877Z,4.27
2018-11-14T15:08:27.666Z,3.80
2018-11-14T15:10:31.516Z,3.73
2018-11-14T15:12:35.227Z,4.83
2018-11-14T15:14:39.095Z,4.60
2018-11-14T15:16:42.798Z,5.80
2018-11-14T15:18:46.620Z,5.97
2018-11-14T15:20:50.410Z,6.67
2018-11-14T15:22:54.238Z,6.30
2018-11-14T15:24:58.132Z,7.87
2018-11-14T15:27:01.977Z,6.87
2018-11-14T15:29:06.262Z,7.30
2018-11-14T15:31:10.160Z,7.57
2018-11-14T15:33:14.063Z,8.43
2018-11-14T15:35:17.928Z,8.40
2018-11-14T15:37:21.590Z,8.60
2018-11-14T15:39:25.578Z,8.60
2018-11-14T15:41:31.019Z,10.57
2018-11-14T15:43:36.155Z,9.53
2018-11-14T15:45:40.250Z,10.50
2018-11-14T15:47:44.199Z,9.90
2018-11-14T15:49:48.314Z,9.17
2018-11-14T15:51:52.301Z,11.43
2018-11-14T15:53:55.982Z,10.93
2018-11-14T15:55:59.729Z,11.77
2018-11-14T15:58:03.684Z,12.73
2018-11-14T16:00:15.151Z,13.73
2018-11-14T16:02:20.961Z,14.47
2018-11-14T16:04:25.342Z,14.00
2018-11-14T16:06:29.582Z,14.63
2018-11-14T16:08:33.335Z,13.57
2018-11-14T16:10:37.241Z,14.03
2018-11-14T16:12:42.006Z,13.90
2018-11-14T16:14:45.782Z,14.87
2018-11-14T16:16:49.632Z,14.40
2018-11-14T16:18:53.388Z,15.20
2018-11-14T16:20:57.173Z,14.50
2018-11-14T16:23:00.921Z,14.27
2018-11-14T16:25:05.340Z,15.50
2018-11-14T16:27:09.928Z,14.27
2018-11-14T16:29:18.009Z,14.83
2018-11-14T16:31:27.458Z,14.13
2018-11-14T16:33:32.155Z,15.00
2018-11-14T16:35:35.970Z,13.57
2018-11-14T16:37:40.546Z,16.37
2018-11-14T16:39:44.497Z,15.27
2018-11-14T16:41:48.924Z,16.73
2018-11-14T16:43:52.882Z,15.47
2018-11-14T16:45:57.411Z,15.53
2018-11-14T16:48:01.182Z,17.03
2018-11-14T16:50:05.180Z,15.33
2018-11-14T16:52:08.849Z,15.87
2018-11-14T16:54:12.612Z,15.93
2018-11-14T16:56:16.394Z,15.20
2018-11-14T16:58:20.876Z,15.60
2018-11-14T17:00:26.080Z,16.47
2018-11-14T17:02:29.842Z,15.83
2018-11-14T17:04:33.770Z,16.43
2018-11-14T17:06:37.699Z,15.47
2018-11-14T17:08:41.742Z,17.00
2018-11-14T17:10:45.785Z,17.00
2018-11-14T17:12:50.944Z,16.97
2018-11-14T17:14:54.829Z,17.37
2018-11-14T17:16:58.594Z,16.57
2018-11-14T17:19:03.202Z,17.23
2018-11-14T17:21:07.139Z,17.33
2018-11-14T17:23:12.414Z,17.20
2018-11-14T17:25:18.672Z,17.57
2018-11-14T17:27:22.522Z,16.90
2018-11-14T17:29:26.349Z,17.90
2018-11-14T17:31:30.798Z,16.17
2018-11-14T17:33:34.998Z,18.50
2018-11-14T17:35:38.808Z,18.57
2018-11-14T17:37:43.849Z,18.80
2018-11-14T17:39:47.594Z,18.90
2018-11-14T17:41:51.785Z,19.80
2018-11-14T17:43:55.570Z,17.70
2018-11-14T17:45:59.334Z,19.97
2018-11-14T17:48:03.222Z,18.43
2018-11-14T17:50:10.682Z,18.33
2018-11-14T17:52:14.784Z,17.50
2018-11-14T17:54:19.329Z,16.30
2018-11-14T17:56:23.269Z,17.10
2018-11-14T17:58:27.935Z,17.03
2018-11-14T18:00:32.652Z,17.27
2018-11-14T18:02:38.381Z,16.83
2018-11-14T18:04:42.175Z,18.23
2018-11-14T18:06:47.194Z,17.47
2018-11-14T18:08:51.539Z,18.30
2018-11-14T18:10:55.360Z,18.90
2018-11-14T18:13:01.702Z,17.47
2018-11-14T18:15:06.415Z,16.33
2018-11-14T18:17:10.528Z,17.07
2018-11-14T18:19:14.287Z,16.27
2018-11-14T18:21:18.334Z,17.07
2018-11-14T18:23:22.634Z,14.70
2018-11-14T18:25:27.202Z,15.53
2018-11-14T18:27:32.407Z,15.63
2018-11-14T18:29:36.166Z,16.33
2018-11-14T18:31:40.123Z,14.77
2018-11-14T18:33:44.843Z,17.13
2018-11-14T18:35:48.621Z,16.73
2018-11-14T18:37:55.228Z,18.40
2018-11-14T18:39:59.090Z,18.10
2018-11-14T18:42:03.006Z,17.20
2018-11-14T18:44:07.223Z,17.00
2018-11-14T18:46:12.090Z,16.10
2018-11-14T18:48:16.211Z,16.80
2018-11-14T18:50:20.687Z,17.80
2018-11-14T18:52:24.471Z,17.97
2018-11-14T18:54:28.580Z,19.23
2018-11-14T18:56:32.427Z,20.20
2018-11-14T18:58:36.597Z,19.90
2018-11-14T19:00:40.502Z,19.63
2018-11-14T19:02:45.157Z,20.17
2018-11-14T19:04:49.371Z,20.63
2018-11-14T19:06:53.302Z,21.40
2018-11-14T19:08:57.114Z,21.57
2018-11-14T19:11:00.849Z,20.70
2018-11-14T19:13:04.890Z,18.80
2018-11-14T19:15:12.019Z,20.87
2018-11-14T19:17:15.945Z,21.17
2018-11-14T19:19:19.770Z,20.17
2018-11-14T19:21:25.170Z,19.80
2018-11-14T19:23:34.343Z,20.83
2018-11-14T19:25:38.588Z,22.13
2018-11-14T19:27:43.339Z,21.73
2018-11-14T19:29:49.649Z,22.13
2018-11-14T19:31:54.872Z,21.10
2018-11-14T19:33:59.055Z,20.50
2018-11-14T19:36:03.006Z,21.20
2018-11-14T19:38:09.246Z,20.57
2018-11-14T19:40:24.090Z,20.13
2018-11-14T19:42:27.875Z,21.27
2018-11-14T19:44:32.497Z,21.47
2018-11-14T19:46:36.447Z,20.73
2018-11-14T19:48:43.847Z,21.27
2018-11-14T19:50:47.923Z,20.77
2018-11-14T19:52:52.195Z,20.13
2018-11-14T19:54:56.079Z,18.27
2018-11-14T19:57:02.542Z,18.47
2018-11-14T19:59:12.822Z,16.93
2018-11-14T20:02:45.437Z,16.70
2018-11-14T20:04:56.953Z,16.17
2018-11-14T20:07:00.935Z,15.77
2018-11-14T20:09:09.477Z,17.43
2018-11-14T20:11:14.662Z,16.63
2018-11-14T20:13:18.554Z,15.13
2018-11-14T20:15:25.543Z,16.47
2018-11-14T20:17:29.416Z,17.63
2018-11-14T20:19:33.143Z,16.67
2018-11-14T20:21:42.919Z,16.47
2018-11-14T20:23:46.763Z,17.63
2018-11-14T20:25:52.638Z,16.07
2018-11-14T20:27:56.500Z,17.63
2018-11-14T20:30:00.876Z,18.17
2018-11-14T20:32:04.922Z,16.77
2018-11-14T20:34:08.754Z,16.03
2018-11-14T20:36:12.763Z,17.40
2018-11-14T20:38:16.611Z,16.80
2018-11-14T20:40:21.511Z,18.37
2018-11-14T20:43:49.655Z,17.90
2018-11-14T20:45:56.834Z,18.20
2018-11-14T20:48:00.824Z,16.30
2018-11-14T20:50:06.726Z,19.07
2018-11-14T20:52:10.905Z,18.63
2018-11-14T20:54:14.956Z,19.63
2018-11-14T20:56:18.923Z,19.73
2018-11-14T20:58:22.728Z,20.20
2018-11-14T21:00:29.122Z,20.37
2018-11-14T21:02:33.292Z,20.83
2018-11-14T21:04:37.220Z,20.00
2018-11-14T21:06:41.737Z,20.70
2018-11-14T21:08:46.812Z,21.87
2018-11-14T21:10:55.187Z,24.03
2018-11-14T21:13:03.232Z,21.60
2018-11-14T21:15:07.636Z,23.40
2018-11-14T21:17:11.571Z,24.77
2018-11-14T21:19:15.603Z,23.97
2018-11-14T21:21:19.555Z,24.33
2018-11-14T21:23:23.486Z,24.23
2018-11-14T21:25:27.706Z,25.00
2018-11-14T21:27:31.538Z,24.47
2018-11-14T21:29:35.468Z,25.57
2018-11-14T21:31:39.957Z,23.20
2018-11-14T21:33:43.783Z,24.50
2018-11-14T21:35:47.518Z,24.47
2018-11-14T21:37:52.962Z,24.53
2018-11-14T21:39:56.710Z,25.13
2018-11-14T21:42:00.862Z,27.23
2018-11-14T21:44:05.345Z,26.03
2018-11-14T21:46:09.206Z,26.63
2018-11-14T21:48:14.515Z,29.20
2018-11-14T21:50:19.327Z,27.33
2018-11-14T21:52:26.416Z,29.73
2018-11-14T21:54:35.235Z,27.60
2018-11-14T21:56:39.431Z,28.23
2018-11-14T21:58:43.314Z,26.87
2018-11-14T22:00:47.461Z,27.17
2018-11-14T22:02:52.780Z,28.97
2018-11-14T22:04:56.676Z,26.57
2018-11-14T22:07:00.776Z,28.10
2018-11-14T22:09:06.962Z,27.23
2018-11-14T22:11:10.945Z,26.70
2018-11-14T22:13:14.802Z,30.37
2018-11-14T22:15:19.975Z,27.50
2018-11-14T22:17:23.835Z,27.83
2018-11-14T22:19:27.755Z,28.10
2018-11-14T22:21:32.286Z,28.27
2018-11-14T22:23:36.062Z,30.87
2018-11-14T22:25:40.056Z,29.67
2018-11-14T22:29:57.507Z,30.23
2018-11-14T22:32:04.013Z,28.97
2018-11-14T22:34:08.949Z,29.70
2018-11-14T22:36:12.597Z,28.70
2018-11-14T22:38:18.090Z,28.97
2018-11-14T22:40:23.217Z,28.80
2018-11-14T22:42:28.215Z,29.83
2018-11-14T22:44:32.056Z,29.70
2018-11-14T22:46:39.129Z,30.80
2018-11-14T22:48:55.671Z,28.80
2018-11-14T22:51:04.129Z,27.97
2018-11-14T22:53:16.102Z,27.00
2018-11-14T22:55:21.595Z,28.27
2018-11-14T22:57:28.945Z,28.33
2018-11-14T22:59:32.761Z,29.57
2018-11-14T23:01:36.514Z,29.13
2018-11-14T23:03:40.353Z,28.53
2018-11-14T23:05:44.244Z,29.33
2018-11-14T23:07:49.691Z,25.50
2018-11-14T23:09:53.533Z,25.67
2018-11-14T23:11:57.651Z,25.27
2018-11-14T23:14:02.403Z,22.80
2018-11-14T23:16:07.331Z,24.57
2018-11-14T23:18:11.151Z,24.13
2018-11-14T23:20:15.880Z,24.40
2018-11-14T23:22:19.687Z,24.87
2018-11-14T23:24:24.494Z,25.97
2018-11-14T23:26:34.775Z,24.97
2018-11-14T23:28:39.042Z,26.00
2018-11-14T23:30:42.766Z,26.47
2018-11-14T23:32:48.018Z,26.10
2018-11-14T23:34:57.311Z,26.33
2018-11-14T23:37:03.965Z,27.73
2018-11-14T23:41:34.013Z,27.30
2018-11-14T23:43:42.040Z,27.30
2018-11-14T23:45:51.321Z,27.73
2018-11-14T23:48:02.282Z,27.17
2018-11-14T23:50:09.173Z,27.20
2018-11-14T23:52:13.236Z,27.87
2018-11-14T23:54:17.008Z,27.07
2018-11-14T23:56:20.696Z,28.87
2018-11-14T23:58:24.610Z,26.90
